Time;durP1;ratioP1;P1;durP2;ratioP2;P2;SDS_P1;SDS_P2;PMS_P1;PMS_P2;Temp;Humidity;BMP_temperature;BMP_pressure;BME280_temperature;BME280_humidity;BME280_pressure;Samples;Min_cycle;Max_cycle;Signal;HPM_P1;HPM_P2
2022/03/31 00:02:11;;;;;;;5.25;2.35;;;3.50;99.90;;;;;;5039655;28;20054;-82
2022/03/31 00:04:40;;;;;;;4.03;2.75;;;3.30;99.90;;;;;;5036067;28;20049;-79
2022/03/31 00:07:05;;;;;;;4.22;3.00;;;4.20;99.90;;;;;;5034115;28;20085;-82
2022/03/31 00:09:31;;;;;;;6.00;3.10;;;3.30;99.90;;;;;;5017546;28;20088;-83
2022/03/31 00:12:00;;;;;;;5.78;3.25;;;3.30;99.90;;;;;;5034410;28;20053;-82
2022/03/31 00:14:31;;;;;;;5.95;3.42;;;4.20;99.90;;;;;;5033861;28;20084;-82
2022/03/31 00:16:57;;;;;;;6.45;3.67;;;3.30;99.90;;;;;;5033969;28;20053;-83
2022/03/31 00:19:23;;;;;;;7.45;3.85;;;3.30;99.90;;;;;;5033697;28;20044;-82
2022/03/31 00:21:49;;;;;;;6.25;2.85;;;3.30;99.90;;;;;;5034273;28;20045;-83
2022/03/31 00:24:15;;;;;;;5.65;2.40;;;3.30;99.90;;;;;;5017488;28;20433;-81
2022/03/31 00:26:41;;;;;;;3.05;1.90;;;3.90;99.90;;;;;;5032831;28;20129;-82
2022/03/31 00:29:07;;;;;;;7.45;2.70;;;3.60;99.90;;;;;;5033457;28;20049;-82
2022/03/31 00:31:33;;;;;;;9.35;1.88;;;3.40;99.90;;;;;;5033396;28;20080;-83
2022/03/31 00:33:59;;;;;;;5.30;1.95;;;3.50;99.90;;;;;;5032843;28;20049;-83
2022/03/31 00:36:24;;;;;;;3.40;1.75;;;4.10;99.90;;;;;;5050601;28;20073;-82
2022/03/31 00:41:38;;;;;;;6.95;1.73;;;4.10;99.90;;;;;;5034590;28;20053;-82
2022/03/31 00:44:07;;;;;;;3.58;1.52;;;3.50;99.90;;;;;;5050593;28;20304;-81
2022/03/31 00:46:34;;;;;;;1.63;1.35;;;3.80;99.90;;;;;;5046440;28;20057;-83
2022/03/31 00:49:01;;;;;;;2.03;1.48;;;3.90;99.90;;;;;;5033145;28;20034;-82
2022/03/31 00:51:28;;;;;;;3.70;1.38;;;3.90;99.90;;;;;;5034459;28;20448;-83
2022/03/31 00:53:53;;;;;;;2.60;1.98;;;4.00;99.90;;;;;;5046086;28;20521;-81
2022/03/31 00:56:19;;;;;;;3.15;1.80;;;3.90;99.90;;;;;;5029004;28;20045;-82
2022/03/31 00:58:45;;;;;;;4.75;2.10;;;3.80;99.90;;;;;;5044075;28;20046;-81
2022/03/31 01:01:12;;;;;;;5.88;3.00;;;3.90;99.90;;;;;;5007602;28;20056;-82
2022/03/31 01:03:38;;;;;;;5.00;2.92;;;3.60;99.90;;;;;;5035090;28;20091;-81
2022/03/31 01:06:04;;;;;;;5.20;3.10;;;3.50;99.90;;;;;;5033433;28;20662;-82
2022/03/31 01:08:30;;;;;;;4.57;2.95;;;3.50;99.90;;;;;;5035417;28;20088;-82
2022/03/31 01:10:56;;;;;;;5.60;2.80;;;3.50;99.90;;;;;;5016905;28;20311;-81
2022/03/31 01:13:22;;;;;;;3.08;2.50;;;3.40;99.90;;;;;;5033125;28;20079;-82
2022/03/31 01:15:48;;;;;;;3.55;2.00;;;3.70;99.90;;;;;;5015367;28;20057;-82
2022/03/31 01:18:13;;;;;;;2.95;1.77;;;3.70;99.90;;;;;;5033574;28;20148;-82
2022/03/31 01:20:39;;;;;;;5.18;2.28;;;4.20;99.90;;;;;;5033795;28;20075;-81
2022/03/31 01:23:10;;;;;;;5.85;2.30;;;3.50;99.90;;;;;;5033322;28;20045;-82
2022/03/31 01:25:35;;;;;;;2.25;1.50;;;3.50;99.90;;;;;;5016554;28;20352;-83
2022/03/31 01:28:01;;;;;;;2.40;2.20;;;3.50;99.90;;;;;;5033397;28;20045;-82
2022/03/31 01:30:27;;;;;;;4.90;2.40;;;3.50;99.90;;;;;;5032448;28;20053;-82
2022/03/31 01:32:52;;;;;;;2.10;1.90;;;3.50;99.90;;;;;;5033306;28;20038;-82
2022/03/31 01:35:18;;;;;;;4.57;2.45;;;4.10;99.90;;;;;;5033962;28;20548;-82
2022/03/31 01:37:44;;;;;;;2.92;1.65;;;3.60;99.90;;;;;;4999971;28;20068;-82
2022/03/31 01:40:10;;;;;;;4.85;2.60;;;3.70;99.90;;;;;;5032277;28;20056;-83
2022/03/31 01:42:36;;;;;;;1.50;1.40;;;3.60;99.90;;;;;;5024066;28;20292;-83
2022/03/31 01:45:03;;;;;;;5.75;2.60;;;3.70;99.90;;;;;;5011899;28;20061;-82
2022/03/31 01:47:29;;;;;;;5.20;2.03;;;3.50;99.90;;;;;;5012267;28;20084;-82
2022/03/31 01:49:55;;;;;;;4.40;2.45;;;3.60;99.90;;;;;;5013137;28;20050;-82
2022/03/31 01:52:23;;;;;;;5.90;2.65;;;4.30;99.90;;;;;;5012029;28;20038;-82
2022/03/31 01:54:49;;;;;;;8.73;2.80;;;3.40;99.90;;;;;;5012306;28;20053;-83
2022/03/31 01:57:15;;;;;;;5.88;3.38;;;3.30;99.90;;;;;;5012972;28;20060;-82
2022/03/31 01:59:41;;;;;;;8.05;3.30;;;3.90;99.90;;;;;;5013439;28;20123;-83
2022/03/31 02:02:07;;;;;;;4.80;2.80;;;3.20;99.90;;;;;;5011835;28;20081;-82
2022/03/31 02:04:33;;;;;;;7.50;3.45;;;3.20;99.90;;;;;;5012138;28;20054;-82
2022/03/31 02:06:59;;;;;;;11.95;3.60;;;3.20;99.90;;;;;;4995588;28;20341;-82
2022/03/31 02:09:25;;;;;;;5.47;3.30;;;3.20;99.90;;;;;;5019822;28;20046;-81
2022/03/31 02:11:52;;;;;;;5.32;3.30;;;3.90;99.90;;;;;;5025439;28;20088;-81
2022/03/31 02:14:19;;;;;;;7.40;4.78;;;3.40;99.90;;;;;;5028472;28;20105;-81
2022/03/31 02:16:45;;;;;;;8.38;4.90;;;3.30;99.90;;;;;;5034980;28;20081;-81
2022/03/31 02:19:12;;;;;;;7.63;5.38;;;3.40;99.90;;;;;;5035249;28;20072;-81
2022/03/31 02:21:37;;;;;;;7.82;5.82;;;4.40;99.90;;;;;;5026709;28;20445;-82
2022/03/31 02:24:03;;;;;;;12.00;6.60;;;3.30;99.90;;;;;;5014313;28;20038;-81
2022/03/31 02:26:29;;;;;;;9.18;6.15;;;3.30;99.90;;;;;;5013391;28;20405;-82
2022/03/31 02:28:55;;;;;;;5.65;4.43;;;4.20;99.90;;;;;;5013285;28;20045;-80
2022/03/31 02:31:20;;;;;;;9.35;6.45;;;3.40;99.90;;;;;;5012025;28;20050;-82
2022/03/31 02:33:46;;;;;;;8.57;4.97;;;3.50;99.90;;;;;;5004192;28;20065;-82
2022/03/31 02:36:12;;;;;;;11.57;6.95;;;4.30;99.90;;;;;;5025830;28;20448;-82
2022/03/31 02:38:37;;;;;;;10.20;7.78;;;3.40;99.90;;;;;;5015319;28;20494;-82
2022/03/31 02:41:04;;;;;;;10.93;7.78;;;3.50;99.90;;;;;;5031428;28;20377;-81
2022/03/31 02:43:31;;;;;;;13.13;9.00;;;3.50;99.90;;;;;;5031460;28;20486;-81
2022/03/31 02:45:58;;;;;;;14.13;9.43;;;3.40;99.90;;;;;;5027149;28;20093;-80
2022/03/31 02:48:23;;;;;;;8.50;4.75;;;3.80;99.90;;;;;;5031586;28;20040;-83
2022/03/31 02:50:49;;;;;;;15.82;9.73;;;3.60;99.90;;;;;;5013864;28;20037;-83
2022/03/31 02:56:00;;;;;;;12.85;9.90;;;3.50;99.90;;;;;;5030726;28;20048;-79
2022/03/31 02:58:26;;;;;;;14.05;8.73;;;3.90;99.90;;;;;;5013671;28;20555;-81
2022/03/31 03:00:51;;;;;;;14.68;10.85;;;3.60;99.90;;;;;;5031500;28;20049;-81
2022/03/31 03:03:17;;;;;;;10.50;8.18;;;3.80;99.90;;;;;;5030699;28;20092;-81
2022/03/31 03:05:45;;;;;;;11.90;9.80;;;3.60;99.90;;;;;;5029712;28;20049;-82
2022/03/31 03:08:11;;;;;;;17.00;12.02;;;3.70;99.90;;;;;;5031457;28;20089;-81
2022/03/31 03:10:37;;;;;;;13.27;9.43;;;3.40;99.90;;;;;;5031609;28;20137;-80
2022/03/31 03:13:03;;;;;;;9.15;7.25;;;3.60;99.90;;;;;;5031366;28;20115;-80
2022/03/31 03:15:29;;;;;;;11.38;8.57;;;4.10;99.90;;;;;;5031524;28;20438;-81
2022/03/31 03:17:54;;;;;;;13.20;9.80;;;3.60;99.90;;;;;;5030210;28;20085;-81
2022/03/31 03:20:20;;;;;;;15.73;11.73;;;3.60;99.90;;;;;;5030107;28;20049;-82
2022/03/31 03:22:50;;;;;;;12.50;9.32;;;3.50;99.90;;;;;;5030290;28;20433;-81
2022/03/31 03:25:17;;;;;;;16.50;12.23;;;3.60;99.90;;;;;;5031300;28;20114;-82
2022/03/31 03:27:43;;;;;;;13.73;9.18;;;3.50;99.90;;;;;;5013763;28;20053;-81
2022/03/31 03:30:09;;;;;;;13.60;9.10;;;3.70;99.90;;;;;;5029705;28;20133;-81
2022/03/31 03:32:38;;;;;;;8.10;6.28;;;3.70;99.90;;;;;;5031169;28;20052;-81
2022/03/31 03:35:08;;;;;;;12.52;8.25;;;3.70;99.90;;;;;;5013693;28;20167;-81
2022/03/31 03:37:35;;;;;;;12.52;9.52;;;3.70;99.90;;;;;;5030067;28;20228;-81
2022/03/31 03:40:04;;;;;;;13.50;10.30;;;3.60;99.90;;;;;;5033390;28;20091;-81
2022/03/31 03:42:31;;;;;;;11.55;8.45;;;4.30;99.90;;;;;;5045605;28;20057;-80
2022/03/31 03:44:57;;;;;;;10.93;8.32;;;4.60;99.90;;;;;;5038831;28;20084;-81
2022/03/31 03:47:22;;;;;;;8.85;7.75;;;4.20;99.90;;;;;;5031445;28;20049;-80
2022/03/31 03:49:48;;;;;;;13.48;10.07;;;3.50;99.90;;;;;;5028427;28;20105;-80
2022/03/31 03:52:14;;;;;;;13.75;11.40;;;3.50;99.90;;;;;;5034729;28;20437;-81
2022/03/31 03:54:40;;;;;;;12.77;9.95;;;3.40;99.90;;;;;;5030034;28;20051;-81
2022/03/31 03:57:06;;;;;;;9.90;7.38;;;3.50;99.90;;;;;;5031307;28;20049;-78
2022/03/31 03:59:32;;;;;;;12.02;9.57;;;3.50;99.90;;;;;;5029552;28;20042;-81
2022/03/31 04:01:59;;;;;;;10.77;6.43;;;3.40;99.90;;;;;;5030778;28;20175;-81
2022/03/31 04:04:25;;;;;;;11.20;7.65;;;3.40;99.90;;;;;;5029393;28;20100;-81
2022/03/31 04:06:51;;;;;;;8.35;6.47;;;3.40;99.90;;;;;;5029520;28;20379;-81
2022/03/31 04:09:17;;;;;;;8.70;6.72;;;3.40;99.90;;;;;;5046182;28;20091;-81
2022/03/31 04:11:42;;;;;;;10.50;8.38;;;3.70;99.90;;;;;;5031507;28;20492;-81
2022/03/31 04:14:08;;;;;;;13.77;10.77;;;3.30;99.90;;;;;;5031148;28;20049;-78
2022/03/31 04:16:34;;;;;;;14.57;10.23;;;3.20;99.90;;;;;;5031409;28;20064;-82
2022/03/31 04:18:59;;;;;;;9.40;6.97;;;3.20;99.90;;;;;;5030178;28;20524;-81
2022/03/31 04:21:25;;;;;;;10.25;8.13;;;3.00;99.90;;;;;;5028583;28;20058;-81
2022/03/31 04:23:51;;;;;;;15.25;10.73;;;3.10;99.90;;;;;;5030982;28;20041;-82
2022/03/31 04:26:16;;;;;;;15.52;10.70;;;3.10;99.90;;;;;;5029609;28;20057;-82
2022/03/31 04:28:42;;;;;;;17.73;12.75;;;3.00;99.90;;;;;;5031161;28;20048;-81
2022/03/31 04:31:08;;;;;;;14.35;9.70;;;2.90;99.90;;;;;;5030207;28;20053;-81
2022/03/31 04:33:33;;;;;;;16.75;11.85;;;2.90;99.90;;;;;;5029243;28;20056;-81
2022/03/31 04:35:59;;;;;;;14.80;10.27;;;3.70;99.90;;;;;;5030583;28;20057;-81
2022/03/31 04:38:25;;;;;;;19.95;13.13;;;3.10;99.90;;;;;;5048073;28;20063;-80
2022/03/31 04:40:50;;;;;;;26.67;16.30;;;3.00;99.90;;;;;;5055762;28;20049;-81
2022/03/31 04:43:16;;;;;;;21.73;14.10;;;3.10;99.90;;;;;;5046902;28;20485;-82
2022/03/31 04:45:41;;;;;;;13.57;6.55;;;3.00;99.90;;;;;;5034904;28;20088;-82
2022/03/31 04:48:07;;;;;;;20.80;14.05;;;3.90;99.90;;;;;;5034097;28;20496;-82
2022/03/31 04:50:33;;;;;;;18.40;12.85;;;3.10;99.90;;;;;;5032428;28;20084;-81
2022/03/31 04:52:59;;;;;;;21.95;14.40;;;3.20;99.90;;;;;;5016518;28;20111;-82
2022/03/31 04:55:25;;;;;;;21.20;13.70;;;3.20;99.90;;;;;;5033691;28;20045;-82
2022/03/31 04:57:52;;;;;;;21.30;15.10;;;3.20;99.90;;;;;;5033129;28;20045;-81
2022/03/31 05:00:17;;;;;;;15.65;11.65;;;3.10;99.90;;;;;;5032378;28;20053;-81
2022/03/31 05:02:43;;;;;;;23.73;14.25;;;3.30;99.90;;;;;;5032595;28;20045;-82
2022/03/31 05:05:09;;;;;;;14.02;10.07;;;3.60;99.90;;;;;;5016384;28;20056;-82
2022/03/31 05:07:35;;;;;;;18.38;11.25;;;3.30;99.90;;;;;;5033483;28;20704;-82
2022/03/31 05:10:01;;;;;;;23.02;15.10;;;3.40;99.90;;;;;;5032777;28;20049;-82
2022/03/31 05:12:26;;;;;;;22.58;13.82;;;3.20;99.90;;;;;;5015719;28;20049;-81
2022/03/31 05:14:52;;;;;;;23.63;17.23;;;3.10;99.90;;;;;;5033841;28;20060;-81
2022/03/31 05:17:18;;;;;;;26.67;16.60;;;3.10;99.90;;;;;;5016094;28;20053;-81
2022/03/31 05:19:43;;;;;;;14.95;9.43;;;3.00;99.90;;;;;;5032478;28;20103;-82
2022/03/31 05:22:09;;;;;;;23.58;15.93;;;3.10;99.90;;;;;;5033854;28;20045;-81
2022/03/31 05:24:35;;;;;;;28.35;17.92;;;3.40;99.90;;;;;;5032117;28;20057;-81
2022/03/31 05:27:01;;;;;;;30.23;18.38;;;3.60;99.90;;;;;;5033864;28;20084;-82
2022/03/31 05:29:27;;;;;;;32.20;21.80;;;3.10;99.90;;;;;;5032953;28;20485;-81
2022/03/31 05:31:53;;;;;;;23.58;15.07;;;3.00;99.90;;;;;;5033993;28;20053;-82
2022/03/31 05:34:21;;;;;;;22.10;15.52;;;3.10;99.90;;;;;;5031540;28;20536;-82
2022/03/31 05:36:46;;;;;;;25.55;17.95;;;3.50;99.90;;;;;;5033788;28;20060;-82
2022/03/31 05:39:12;;;;;;;24.35;15.90;;;3.50;99.90;;;;;;5031991;28;20041;-81
2022/03/31 05:41:38;;;;;;;17.33;12.30;;;4.30;99.90;;;;;;5031730;28;20049;-82
2022/03/31 05:44:04;;;;;;;8.95;7.28;;;3.00;99.90;;;;;;5032269;28;20076;-81
2022/03/31 05:46:30;;;;;;;20.50;14.88;;;3.10;99.90;;;;;;5033145;28;20085;-82
2022/03/31 05:48:55;;;;;;;14.10;10.02;;;3.10;99.90;;;;;;5031745;28;20629;-81
2022/03/31 05:51:21;;;;;;;8.48;6.68;;;3.10;99.90;;;;;;5031883;28;20405;-82
2022/03/31 05:53:47;;;;;;;20.58;15.45;;;3.30;99.90;;;;;;5032719;28;20053;-82
2022/03/31 05:56:12;;;;;;;11.88;8.38;;;3.00;99.90;;;;;;5031790;28;20057;-82
2022/03/31 05:58:38;;;;;;;10.13;7.82;;;4.00;99.90;;;;;;5031250;28;20077;-82
2022/03/31 06:01:04;;;;;;;10.82;8.80;;;3.30;99.90;;;;;;5031940;28;20137;-82
2022/03/31 06:03:30;;;;;;;16.20;12.40;;;3.30;99.90;;;;;;5032506;28;20191;-82
2022/03/31 06:05:56;;;;;;;9.95;7.15;;;3.40;99.90;;;;;;5031390;28;20132;-82
2022/03/31 06:08:21;;;;;;;10.18;7.57;;;3.20;99.90;;;;;;5030928;28;20133;-82
2022/03/31 06:10:47;;;;;;;18.10;13.77;;;3.20;99.90;;;;;;5032372;28;20046;-82
2022/03/31 06:13:13;;;;;;;15.45;11.77;;;3.00;99.90;;;;;;5032508;28;20124;-81
2022/03/31 06:15:39;;;;;;;11.88;8.95;;;2.90;99.90;;;;;;5031998;28;20045;-81
2022/03/31 06:18:06;;;;;;;14.75;12.05;;;3.00;99.90;;;;;;5014692;28;20482;-80
2022/03/31 06:20:34;;;;;;;13.52;9.98;;;2.80;99.90;;;;;;5014364;28;20147;-82
2022/03/31 06:23:00;;;;;;;13.98;11.48;;;3.00;99.90;;;;;;5032603;28;20045;-82
2022/03/31 06:25:26;;;;;;;11.10;9.85;;;3.00;99.90;;;;;;5014114;28;20091;-82
2022/03/31 06:27:52;;;;;;;12.02;10.40;;;3.60;99.90;;;;;;5032251;28;20124;-81
2022/03/31 06:30:17;;;;;;;14.60;11.50;;;3.00;99.90;;;;;;5030833;28;20060;-81
2022/03/31 06:32:43;;;;;;;7.75;6.68;;;3.20;99.90;;;;;;5013586;28;20557;-82
2022/03/31 06:35:14;;;;;;;9.40;7.47;;;3.00;99.90;;;;;;5031939;28;20045;-82
2022/03/31 06:37:46;;;;;;;13.43;10.20;;;3.00;99.90;;;;;;5030324;28;20057;-80
2022/03/31 06:40:14;;;;;;;11.05;8.60;;;2.90;99.90;;;;;;5015282;28;20049;-82
2022/03/31 06:42:40;;;;;;;18.27;13.90;;;2.80;99.90;;;;;;5030109;28;20134;-81
2022/03/31 06:45:12;;;;;;;19.67;15.43;;;2.80;99.90;;;;;;5030322;28;20061;-82
2022/03/31 06:47:39;;;;;;;14.20;11.25;;;3.50;99.90;;;;;;5034838;28;20141;-81
2022/03/31 06:50:06;;;;;;;18.55;15.70;;;2.90;99.90;;;;;;5018895;28;20397;-82
2022/03/31 06:52:31;;;;;;;14.45;12.60;;;2.70;99.90;;;;;;5031650;28;20053;-82
2022/03/31 06:54:57;;;;;;;17.25;13.50;;;2.80;99.90;;;;;;5035939;28;20075;-83
2022/03/31 06:57:23;;;;;;;23.48;17.75;;;2.90;99.90;;;;;;5034896;28;20137;-82
2022/03/31 06:59:49;;;;;;;22.30;15.52;;;2.70;99.90;;;;;;5045214;28;20095;-81
2022/03/31 07:02:15;;;;;;;21.20;15.52;;;3.10;99.90;;;;;;5055472;28;20089;-80
2022/03/31 07:04:41;;;;;;;23.30;16.80;;;2.80;99.90;;;;;;5048248;28;20046;-82
2022/03/31 07:07:07;;;;;;;26.58;18.27;;;3.30;99.90;;;;;;5033266;28;20060;-82
2022/03/31 07:09:33;;;;;;;27.58;19.40;;;2.70;99.90;;;;;;5031343;28;20417;-82
2022/03/31 07:11:58;;;;;;;25.30;19.30;;;2.80;99.90;;;;;;5031663;28;20053;-82
2022/03/31 07:14:24;;;;;;;23.88;16.77;;;2.80;99.90;;;;;;5030390;28;20046;-82
2022/03/31 07:16:50;;;;;;;30.15;20.80;;;2.70;99.90;;;;;;5031129;28;20261;-82
2022/03/31 07:19:15;;;;;;;33.72;21.73;;;2.90;99.90;;;;;;5030037;28;20048;-83
2022/03/31 07:21:41;;;;;;;25.92;17.42;;;2.90;99.90;;;;;;5030757;28;20583;-82
2022/03/31 07:24:07;;;;;;;31.35;21.08;;;2.80;99.90;;;;;;5027420;28;20053;-82
2022/03/31 07:26:32;;;;;;;21.80;14.93;;;2.80;99.90;;;;;;5029528;28;20045;-81
2022/03/31 07:28:58;;;;;;;16.65;12.30;;;3.10;99.90;;;;;;5030556;28;20053;-82
2022/03/31 07:31:26;;;;;;;14.32;10.40;;;3.00;99.90;;;;;;5030877;28;20056;-82
2022/03/31 07:33:52;;;;;;;18.20;14.05;;;3.20;99.90;;;;;;5013715;28;20150;-82
2022/03/31 07:36:18;;;;;;;25.35;19.00;;;3.30;99.90;;;;;;5029882;28;20152;-81
2022/03/31 07:38:45;;;;;;;31.20;21.70;;;3.10;99.90;;;;;;5012996;28;20049;-82
2022/03/31 07:41:12;;;;;;;22.63;15.50;;;3.10;99.90;;;;;;5013696;28;20053;-82
2022/03/31 07:43:38;;;;;;;18.00;13.52;;;3.00;99.90;;;;;;5028935;28;20058;-83
2022/03/31 07:46:04;;;;;;;20.60;12.45;;;3.40;99.90;;;;;;5013576;28;20057;-83
2022/03/31 07:48:30;;;;;;;18.55;14.32;;;3.10;99.90;;;;;;5028676;28;20037;-82
2022/03/31 07:50:58;;;;;;;11.82;9.25;;;3.20;99.90;;;;;;5029134;28;20505;-84
2022/03/31 07:53:25;;;;;;;20.17;15.00;;;3.20;99.90;;;;;;5029494;28;20108;-82
2022/03/31 07:55:51;;;;;;;23.73;17.35;;;3.30;99.90;;;;;;5012230;28;20052;-82
2022/03/31 07:58:16;;;;;;;14.73;11.68;;;3.80;99.90;;;;;;5012122;28;20046;-82
2022/03/31 08:00:42;;;;;;;13.48;10.05;;;3.50;99.90;;;;;;5011095;28;20041;-81
2022/03/31 08:03:08;;;;;;;15.57;12.43;;;3.90;99.90;;;;;;5004188;28;20054;-81
2022/03/31 08:05:37;;;;;;;13.35;11.07;;;3.00;99.90;;;;;;5025423;28;20041;-81
2022/03/31 08:08:03;;;;;;;12.93;8.85;;;3.30;99.90;;;;;;5013115;28;20055;-81
2022/03/31 08:10:29;;;;;;;14.65;11.68;;;3.30;99.90;;;;;;5025653;28;20057;-80
2022/03/31 08:12:54;;;;;;;11.25;9.25;;;3.10;99.90;;;;;;5026390;28;20402;-81
2022/03/31 08:15:22;;;;;;;16.60;12.88;;;3.10;99.90;;;;;;5028229;28;20065;-81
2022/03/31 08:17:49;;;;;;;11.95;8.45;;;3.10;99.90;;;;;;5014140;28;20126;-83
2022/03/31 08:20:15;;;;;;;10.45;8.55;;;3.20;99.90;;;;;;5011742;28;20057;-82
2022/03/31 08:22:41;;;;;;;14.73;10.93;;;3.10;99.90;;;;;;5028835;28;20136;-81
2022/03/31 08:25:07;;;;;;;13.00;9.07;;;2.90;99.90;;;;;;5031050;28;20461;-81
2022/03/31 08:27:35;;;;;;;10.95;8.60;;;3.00;99.90;;;;;;5013718;28;20469;-81
2022/03/31 08:30:03;;;;;;;12.07;9.63;;;2.80;99.90;;;;;;5013206;28;20053;-81
2022/03/31 08:32:29;;;;;;;7.18;6.03;;;2.70;99.90;;;;;;5028557;28;20045;-81
2022/03/31 08:34:55;;;;;;;9.27;7.07;;;2.90;99.90;;;;;;5013668;28;20478;-82
2022/03/31 08:37:20;;;;;;;6.88;5.80;;;2.90;99.90;;;;;;5030049;28;20052;-81
2022/03/31 08:39:46;;;;;;;10.98;9.13;;;2.80;99.90;;;;;;5029852;28;20056;-82
2022/03/31 08:42:12;;;;;;;9.73;8.60;;;2.80;99.90;;;;;;5029742;28;20056;-81
2022/03/31 08:44:39;;;;;;;11.55;8.85;;;2.70;99.90;;;;;;5030228;28;20466;-81
2022/03/31 08:47:06;;;;;;;12.88;10.05;;;3.00;99.90;;;;;;5029708;28;20495;-82
2022/03/31 08:49:34;;;;;;;9.35;7.30;;;2.60;99.90;;;;;;5013470;28;20053;-81
2022/03/31 08:51:59;;;;;;;6.47;5.03;;;2.70;99.90;;;;;;5013670;28;20053;-81
2022/03/31 08:54:25;;;;;;;7.57;6.10;;;2.70;99.90;;;;;;5030478;28;20065;-81
2022/03/31 08:56:53;;;;;;;8.80;7.75;;;2.70;99.90;;;;;;5029513;28;20146;-82
2022/03/31 08:59:19;;;;;;;5.20;4.25;;;3.80;99.90;;;;;;5029462;28;20171;-82
2022/03/31 09:01:45;;;;;;;7.93;6.95;;;2.80;99.90;;;;;;5030292;28;20128;-81
2022/03/31 09:04:23;;;;;;;5.63;5.00;;;2.60;99.90;;;;;;5013176;28;20092;-81
2022/03/31 09:06:59;;;;;;;9.13;6.90;;;4.00;99.90;;;;;;5014586;28;20044;-81
2022/03/31 09:09:25;;;;;;;8.32;7.28;;;2.40;99.90;;;;;;5015966;28;20085;-81
2022/03/31 09:11:51;;;;;;;8.23;6.95;;;2.40;99.90;;;;;;5030303;28;20103;-82
2022/03/31 09:14:27;;;;;;;9.32;7.72;;;2.80;99.90;;;;;;5014399;28;20160;-82
2022/03/31 09:16:53;;;;;;;11.93;8.10;;;3.20;99.90;;;;;;5014940;28;20135;-81
2022/03/31 09:19:19;;;;;;;7.70;5.63;;;2.40;99.90;;;;;;5031823;28;20092;-82
2022/03/31 09:21:54;;;;;;;11.93;8.45;;;2.40;99.90;;;;;;5046283;28;20030;-81
2022/03/31 09:24:21;;;;;;;10.02;7.45;;;3.60;99.90;;;;;;5035375;28;20049;-80
2022/03/31 09:26:48;;;;;;;10.75;8.40;;;2.60;99.90;;;;;;5032789;28;20083;-80
2022/03/31 09:29:15;;;;;;;6.00;5.30;;;2.40;99.90;;;;;;5015735;28;20049;-80
2022/03/31 09:31:41;;;;;;;8.48;7.32;;;2.50;99.90;;;;;;4999613;28;20072;-80
2022/03/31 09:34:08;;;;;;;12.55;9.30;;;2.40;99.90;;;;;;5014796;28;20489;-81
2022/03/31 09:36:34;;;;;;;11.93;8.43;;;2.40;99.90;;;;;;5030929;28;20048;-80
2022/03/31 09:39:08;;;;;;;13.43;10.55;;;2.40;99.90;;;;;;4997752;28;20105;-81
2022/03/31 09:41:39;;;;;;;8.82;7.13;;;2.20;99.90;;;;;;5014266;28;20061;-79
2022/03/31 09:44:07;;;;;;;10.73;6.93;;;2.40;99.90;;;;;;5012010;28;20497;-81
2022/03/31 09:46:38;;;;;;;13.88;10.40;;;2.30;99.90;;;;;;5031939;28;20089;-79
2022/03/31 09:49:17;;;;;;;9.55;7.75;;;2.20;99.90;;;;;;5015182;28;20057;-79
2022/03/31 09:51:45;;;;;;;6.50;4.18;;;2.20;99.90;;;;;;5015804;28;20148;-80
2022/03/31 09:54:11;;;;;;;15.00;10.63;;;2.00;99.90;;;;;;5031551;28;20068;-80
2022/03/31 09:56:40;;;;;;;11.07;8.80;;;2.00;99.90;;;;;;5048005;28;20085;-80
2022/03/31 09:59:08;;;;;;;12.25;9.27;;;3.10;99.90;;;;;;5014660;28;20076;-80
2022/03/31 10:01:34;;;;;;;11.10;8.20;;;1.90;99.90;;;;;;5031247;28;20188;-80
2022/03/31 10:04:02;;;;;;;9.93;7.05;;;2.10;99.90;;;;;;5031292;28;20106;-80
2022/03/31 10:06:27;;;;;;;16.80;9.52;;;1.90;99.90;;;;;;5015283;28;20049;-80
2022/03/31 10:08:53;;;;;;;10.00;6.95;;;1.80;99.90;;;;;;5014436;28;20060;-79
2022/03/31 10:11:20;;;;;;;7.90;5.93;;;3.00;99.90;;;;;;5015089;28;20050;-79
2022/03/31 10:13:52;;;;;;;10.65;7.15;;;1.60;99.90;;;;;;5014780;28;20513;-80
2022/03/31 10:16:22;;;;;;;15.63;10.60;;;1.60;99.90;;;;;;5031291;28;20076;-80
2022/03/31 10:18:47;;;;;;;10.40;7.40;;;1.50;99.90;;;;;;4998681;28;20437;-80
2022/03/31 10:21:15;;;;;;;10.93;7.85;;;2.20;99.90;;;;;;5032218;28;20053;-80
2022/03/31 10:26:33;;;;;;;15.60;10.50;;;1.70;99.90;;;;;;5031287;28;20401;-81
2022/03/31 10:29:00;;;;;;;6.50;5.88;;;1.80;99.90;;;;;;5032062;28;20137;-81
2022/03/31 10:31:36;;;;;;;15.27;11.23;;;1.70;99.90;;;;;;5014444;28;20398;-81
2022/03/31 10:34:02;;;;;;;9.75;7.07;;;1.70;99.90;;;;;;4998324;28;20143;-81
2022/03/31 10:36:36;;;;;;;14.10;9.63;;;1.50;99.90;;;;;;5014952;28;20115;-81
2022/03/31 10:39:03;;;;;;;;;;;1.40;99.90;;;;;;4997315;28;20046;-80
2022/03/31 10:41:35;;;;;;;17.70;10.40;;;1.50;99.90;;;;;;5031187;28;19924;-83
2022/03/31 10:44:19;;;;;;;11.70;8.00;;;1.50;99.90;;;;;;5029108;28;20069;-85
2022/03/31 10:46:59;;;;;;;13.17;7.83;;;1.40;99.90;;;;;;5029645;28;20060;-84
2022/03/31 10:49:25;;;;;;;14.75;8.95;;;2.30;99.90;;;;;;5026346;28;20128;-84
2022/03/31 10:51:51;;;;;;;15.25;10.30;;;1.50;99.90;;;;;;5024479;28;20037;-84
2022/03/31 10:54:31;;;;;;;9.05;6.55;;;1.40;99.90;;;;;;5012523;28;20041;-83
2022/03/31 10:57:13;;;;;;;9.18;6.75;;;1.50;99.90;;;;;;5013457;28;20084;-83
2022/03/31 10:59:39;;;;;;;16.58;11.25;;;2.60;99.90;;;;;;4997033;28;20049;-83
2022/03/31 11:02:15;;;;;;;20.35;11.48;;;2.40;99.90;;;;;;5010696;28;20056;-83
2022/03/31 11:04:55;;;;;;;23.15;11.80;;;1.50;99.90;;;;;;5025120;28;20092;-83
2022/03/31 11:07:24;;;;;;;15.35;10.70;;;1.40;99.90;;;;;;5028233;28;20087;-84
2022/03/31 11:10:13;;;;;;;10.98;6.80;;;1.30;99.90;;;;;;5025123;28;20052;-83
2022/03/31 11:12:39;;;;;;;16.25;9.80;;;1.40;99.90;;;;;;4994290;28;20037;-84
2022/03/31 11:15:09;;;;;;;22.88;13.88;;;1.30;99.90;;;;;;5011843;28;20055;-84
2022/03/31 11:17:36;;;;;;;30.92;16.98;;;1.30;99.90;;;;;;4997476;28;20667;-84
2022/03/31 11:20:13;;;;;;;20.55;11.07;;;2.70;99.90;;;;;;5010446;28;20060;-83
2022/03/31 11:22:44;;;;;;;12.95;8.30;;;1.40;99.90;;;;;;5009245;28;20073;-82
2022/03/31 11:25:10;;;;;;;16.27;10.18;;;1.30;99.90;;;;;;5011803;28;20049;-83
2022/03/31 11:27:37;;;;;;;22.65;12.50;;;1.40;99.90;;;;;;5030128;28;20600;-82
2022/03/31 11:30:10;;;;;;;28.80;14.32;;;1.30;99.90;;;;;;4997507;28;20056;-85
2022/03/31 11:32:36;;;;;;;24.00;12.95;;;1.30;99.90;;;;;;5013322;28;20103;-84
2022/03/31 11:35:03;;;;;;;19.98;12.07;;;1.90;99.90;;;;;;5013198;28;20053;-83
2022/03/31 11:37:29;;;;;;;16.52;9.73;;;1.60;99.90;;;;;;4997063;28;20049;-84
2022/03/31 11:39:55;;;;;;;25.20;14.50;;;1.40;99.90;;;;;;5031720;28;20042;-84
2022/03/31 11:42:21;;;;;;;24.55;13.65;;;1.30;99.90;;;;;;5041904;28;20038;-83
2022/03/31 11:44:47;;;;;;;22.35;13.05;;;1.40;99.90;;;;;;5046401;28;20065;-83
2022/03/31 11:47:24;;;;;;;21.83;13.43;;;2.70;99.90;;;;;;5042326;28;20052;-83
2022/03/31 11:49:57;;;;;;;15.95;10.35;;;1.50;99.90;;;;;;5034880;28;20084;-84
2022/03/31 11:52:32;;;;;;;17.85;10.63;;;2.10;99.90;;;;;;5031159;28;20049;-84
2022/03/31 11:55:00;;;;;;;19.73;12.55;;;1.40;99.90;;;;;;4998574;28;20124;-83
2022/03/31 11:57:27;;;;;;;22.17;11.98;;;1.50;99.90;;;;;;5023966;28;20041;-83
2022/03/31 11:59:53;;;;;;;25.10;15.52;;;1.40;99.90;;;;;;5036670;28;20038;-81
2022/03/31 12:02:21;;;;;;;15.02;8.98;;;1.30;99.90;;;;;;5065943;22;20056;-82
2022/03/31 12:04:48;;;;;;;12.75;8.10;;;1.50;99.90;;;;;;5040637;28;20040;-83
2022/03/31 12:07:14;;;;;;;26.80;15.05;;;1.40;99.90;;;;;;5074783;28;20109;-82
2022/03/31 12:09:41;;;;;;;23.00;14.27;;;1.40;99.90;;;;;;5267529;22;20524;-86
2022/03/31 12:12:11;;;;;;;12.15;7.38;;;2.80;99.90;;;;;;5068000;28;20041;-87
2022/03/31 12:14:38;;;;;;;18.67;11.52;;;1.40;99.90;;;;;;5035987;28;20033;-86
2022/03/31 12:17:04;;;;;;;22.42;14.07;;;1.40;99.90;;;;;;5035544;28;20052;-84
2022/03/31 12:19:37;;;;;;;16.60;10.93;;;1.40;99.90;;;;;;5034347;28;20047;-84
2022/03/31 12:22:03;;;;;;;23.43;14.93;;;1.50;99.90;;;;;;5051764;28;20166;-85
2022/03/31 12:24:29;;;;;;;23.50;13.82;;;1.60;99.90;;;;;;5065500;28;20131;-85
2022/03/31 12:27:02;;;;;;;28.08;18.60;;;2.70;99.90;;;;;;5034968;28;20037;-86
2022/03/31 12:29:32;;;;;;;26.45;14.88;;;1.50;99.90;;;;;;5050990;28;20056;-86
2022/03/31 12:32:08;;;;;;;32.47;22.10;;;2.30;99.90;;;;;;5047923;28;20492;-84
2022/03/31 12:34:55;;;;;;;35.95;23.30;;;1.60;99.90;;;;;;5046169;28;20060;-85
2022/03/31 12:37:34;;;;;;;18.30;12.27;;;1.60;99.90;;;;;;5064848;28;20059;-83
2022/03/31 12:40:08;;;;;;;19.10;12.60;;;1.50;99.90;;;;;;5046162;28;20492;-83
2022/03/31 12:42:36;;;;;;;39.42;24.38;;;1.70;99.90;;;;;;5034286;28;20435;-83
2022/03/31 12:45:14;;;;;;;33.63;20.20;;;1.70;99.90;;;;;;5030084;28;20052;-84
2022/03/31 12:47:43;;;;;;;32.45;20.63;;;1.80;99.90;;;;;;5052363;28;20049;-82
2022/03/31 12:50:33;;;;;;;20.25;12.82;;;1.80;99.90;;;;;;5069425;28;20052;-82
2022/03/31 12:53:00;;;;;;;34.20;20.52;;;1.90;99.90;;;;;;5069162;28;20044;-82
2022/03/31 12:55:31;;;;;;;48.78;30.75;;;2.30;99.90;;;;;;5048538;28;20558;-82